Kestrel — WDG5612 — position and weather

sailwx.info

Track history (hours):
 
Tides and Currents Weather Stations Pressure Air Temp Water Temp Dewpoint Dewpoint Depression Visibility Wind Speed Wind Dir Waves Ship Positions

Kestrel

Owner: Harley Marine Services, Inc, Seattle, WA. More information available from US FCC via Universal Licensing System and Coast Guard Vessel Documentation Center.

Last reported at 2017-Dec-11 04:00 UTC. Time now 2017-Dec-11 04:27 UTC.
Position N 47°47' W 122°24'.

Length 27 m; draft 3.5 m.

Type: Tow > 200 m length. MMSI: 367548420.

Date/timePositionNaut miles runAvg speedWind from/ knotsBaromVisibWave heightAir tempDewpointWater temp
2017-Dec-11 04:00N 47°47' W 122°24'0 0.0
2017-Dec-11 03:30N 47°47' W 122°24'0 0.0
2017-Dec-11 03:00N 47°47' W 122°24'0 0.0
2017-Dec-11 02:30N 47°47' W 122°24'0 0.0
2017-Dec-11 02:00N 47°47' W 122°24'0 0.0
2017-Dec-11 01:30N 47°47' W 122°24'0 0.0
2017-Dec-11 01:00N 47°47' W 122°24'0 0.0
2017-Dec-11 00:30N 47°47' W 122°24'0 0.0
2017-Dec-11 00:00N 47°47' W 122°24'3 5.1
2017-Dec-10 23:30N 47°45' W 122°26'4 7.9
2017-Dec-10 23:00N 47°41' W 122°27'4 7.3
2017-Dec-10 22:30N 47°37' W 122°25'4 7.3
2017-Dec-10 22:00N 47°35' W 122°21'0 0.8
2017-Dec-10 21:27N 47°35' W 122°21'0 0.1
2017-Dec-10 21:00N 47°35' W 122°21'0 0.0
2017-Dec-10 20:30N 47°35' W 122°21'0 0.0
2017-Dec-10 20:00N 47°35' W 122°21'0 0.0
2017-Dec-10 19:30N 47°35' W 122°21'0 0.0
2017-Dec-10 19:00N 47°35' W 122°21'0 0.0
2017-Dec-10 18:27N 47°35' W 122°21'0 0.0
2017-Dec-10 18:00N 47°35' W 122°21'0 0.0
2017-Dec-10 17:30N 47°35' W 122°21'0 0.0
2017-Dec-10 17:00N 47°35' W 122°21'0 0.0
2017-Dec-10 16:30N 47°35' W 122°21'0 0.0
2017-Dec-10 16:00N 47°35' W 122°21'0 0.0
2017-Dec-10 15:30N 47°35' W 122°21'0 0.0
2017-Dec-10 15:00N 47°35' W 122°21'0 0.0
2017-Dec-10 14:30N 47°35' W 122°21'0 0.0
2017-Dec-10 14:00N 47°35' W 122°21'0 0.0
2017-Dec-10 13:30N 47°35' W 122°21'0 0.0
2017-Dec-10 13:00N 47°35' W 122°21'0 0.7
2017-Dec-10 12:30N 47°34' W 122°21'0 0.0
2017-Dec-10 11:59N 47°34' W 122°21'0 0.0
2017-Dec-10 11:29N 47°34' W 122°21'0 0.0
2017-Dec-10 10:59N 47°34' W 122°21'0 0.0
2017-Dec-10 10:29N 47°34' W 122°21'0 0.0
2017-Dec-10 09:59N 47°34' W 122°21'0 0.0
2017-Dec-10 09:29N 47°34' W 122°21'0 0.0
2017-Dec-10 08:59N 47°34' W 122°21'0 0.0
2017-Dec-10 08:29N 47°34' W 122°21'0 0.0
2017-Dec-10 07:59N 47°34' W 122°21'0 0.0
2017-Dec-10 07:29N 47°34' W 122°21'0 0.0
2017-Dec-10 06:59N 47°34' W 122°21'0 0.0
2017-Dec-10 06:29N 47°34' W 122°21'0 0.0
2017-Dec-10 05:59N 47°34' W 122°21'0 0.0
2017-Dec-10 05:29N 47°34' W 122°21'0 0.0
2017-Dec-10 04:59N 47°34' W 122°21'0 0.0
2017-Dec-10 04:26N 47°34' W 122°21'0 0.0
2017-Dec-10 03:59N 47°34' W 122°21'0 0.0
2017-Dec-10 03:29N 47°34' W 122°21'0 0.0
2017-Dec-10 02:56N 47°34' W 122°21'0 0.1
2017-Dec-10 02:26N 47°34' W 122°21'0 0.0
2017-Dec-10 01:59N 47°34' W 122°21'0 0.0
2017-Dec-10 00:29N 47°34' W 122°21'0 0.0
2017-Dec-09 23:59N 47°34' W 122°21'0 0.0
2017-Dec-09 23:14N 47°34' W 122°21'0 0.0
2017-Dec-09 22:53N 47°34' W 122°21'0 0.0
2017-Dec-09 22:29N 47°34' W 122°21'0 0.0
2017-Dec-09 22:01N 47°34' W 122°21'0 0.1
2017-Dec-09 21:30N 47°34' W 122°21'1 1.9
2017-Dec-09 20:58N 47°35' W 122°21'0 0.0
2017-Dec-09 20:29N 47°35' W 122°21'0 0.7
2017-Dec-09 20:00N 47°36' W 122°21'2 4.2
2017-Dec-09 19:30N 47°37' W 122°24'3 6.6
2017-Dec-09 19:00N 47°39' W 122°27'3 6.8
2017-Dec-09 18:30N 47°43' W 122°26'4 7.1
2017-Dec-09 18:01N 47°46' W 122°25'1 1.6
2017-Dec-09 17:29N 47°47' W 122°24'0 0.0
2017-Dec-09 16:59N 47°47' W 122°24'0 0.0
2017-Dec-09 16:29N 47°47' W 122°24'0 0.0
2017-Dec-09 15:59N 47°47' W 122°24'0 0.1
2017-Dec-09 15:29N 47°47' W 122°24'0 0.0
2017-Dec-09 14:59N 47°47' W 122°24'0 0.1
2017-Dec-09 14:29N 47°47' W 122°24'0 0.0
2017-Dec-09 13:59N 47°47' W 122°24'0 0.0
2017-Dec-09 13:29N 47°47' W 122°24'0 0.0
2017-Dec-09 12:59N 47°47' W 122°24'0 0.1
2017-Dec-09 12:29N 47°47' W 122°24'0 0.1
2017-Dec-09 11:59N 47°47' W 122°24'0 0.1
2017-Dec-09 11:29N 47°47' W 122°24'0 0.0
2017-Dec-09 10:59N 47°47' W 122°24'0 0.1
2017-Dec-09 10:29N 47°47' W 122°24'0 0.0
2017-Dec-09 09:59N 47°47' W 122°24'0 0.1
2017-Dec-09 09:29N 47°47' W 122°24'0 0.1
2017-Dec-09 08:56N 47°47' W 122°24'0 0.1
2017-Dec-09 08:29N 47°47' W 122°24'0 0.1
2017-Dec-09 07:59N 47°47' W 122°24'0 0.1
2017-Dec-09 07:29N 47°47' W 122°24'0 0.1
2017-Dec-09 06:59N 47°47' W 122°24'0 0.0
2017-Dec-09 06:29N 47°47' W 122°24'0 0.1
2017-Dec-09 05:59N 47°47' W 122°24'0 0.1
2017-Dec-09 05:29N 47°47' W 122°24'0 0.0
2017-Dec-09 04:59N 47°47' W 122°24'0 0.1
2017-Dec-09 04:29N 47°47' W 122°24'0 0.1
2017-Dec-09 03:59N 47°47' W 122°24'0 0.0
2017-Dec-09 03:29N 47°47' W 122°24'0 0.0
2017-Dec-09 02:59N 47°47' W 122°24'0 0.1
2017-Dec-09 02:29N 47°47' W 122°24'0 0.1
2017-Dec-09 01:59N 47°47' W 122°24'0 0.0
2017-Dec-09 01:29N 47°47' W 122°24'0 0.1
2017-Dec-09 00:59N 47°47' W 122°24'0 0.0
2017-Dec-09 00:29N 47°47' W 122°24'0 0.1
2017-Dec-08 23:59N 47°47' W 122°24'0 0.0
2017-Dec-08 23:29N 47°47' W 122°24'0 0.0
2017-Dec-08 22:59N 47°47' W 122°24'0 0.1
2017-Dec-08 22:26N 47°47' W 122°24'0 0.0
2017-Dec-08 21:59N 47°47' W 122°24'0 0.0
2017-Dec-08 21:29N 47°47' W 122°24'0 0.0
2017-Dec-08 20:59N 47°47' W 122°24'0 0.1
2017-Dec-08 20:29N 47°47' W 122°24'0 0.1
2017-Dec-08 19:59N 47°47' W 122°24'0 0.0
2017-Dec-08 19:29N 47°47' W 122°24'0 0.1
2017-Dec-08 18:59N 47°47' W 122°24'0 0.0
2017-Dec-08 18:29N 47°47' W 122°24'0 0.0
2017-Dec-08 17:59N 47°47' W 122°24'0 0.1
2017-Dec-08 17:29N 47°47' W 122°24'0 0.0
2017-Dec-08 16:53N 47°47' W 122°24'0 0.1
2017-Dec-08 16:29N 47°47' W 122°24'0 0.0
2017-Dec-08 15:59N 47°47' W 122°24'0 0.0
2017-Dec-08 15:29N 47°47' W 122°24'0 0.1
2017-Dec-08 14:59N 47°47' W 122°24'0 0.0
2017-Dec-08 14:29N 47°47' W 122°24'0 0.0
2017-Dec-08 13:59N 47°47' W 122°24'0 0.1
2017-Dec-08 13:29N 47°47' W 122°24'0 0.1
2017-Dec-08 12:59N 47°47' W 122°24'0 0.1
2017-Dec-08 12:29N 47°47' W 122°24'0 0.0
2017-Dec-08 11:59N 47°47' W 122°24'0 0.1
2017-Dec-08 11:29N 47°47' W 122°24'0 0.1
2017-Dec-08 10:59N 47°47' W 122°24'0 0.0
2017-Dec-08 10:29N 47°47' W 122°24'0 0.0
2017-Dec-08 09:59N 47°47' W 122°24'0 0.1
2017-Dec-08 09:29N 47°47' W 122°24'0 0.0
2017-Dec-08 08:59N 47°47' W 122°24'0 0.1
2017-Dec-08 08:29N 47°47' W 122°24'0 0.1
2017-Dec-08 07:59N 47°47' W 122°24'0 0.1
2017-Dec-08 07:29N 47°47' W 122°24'0 0.0
2017-Dec-08 06:56N 47°47' W 122°24'1 2.4
2017-Dec-08 06:30N 47°46' W 122°25'1 2.8
2017-Dec-08 06:00N 47°45' W 122°25'3 5.8
2017-Dec-08 05:30N 47°42' W 122°26'4 7.6
2017-Dec-08 05:00N 47°38' W 122°27'4 7.7
2017-Dec-08 04:30N 47°34' W 122°26'4 7.7
2017-Dec-08 04:00N 47°31' W 122°25'4 7.5
2017-Dec-08 03:30N 47°27' W 122°23'4 7.8
2017-Dec-08 03:00N 47°23' W 122°21'4 7.2
2017-Dec-08 02:30N 47°21' W 122°24'3 7.0
2017-Dec-08 02:00N 47°18' W 122°27'3 4.9
2017-Dec-08 01:28N 47°16' W 122°24'1 1.3
2017-Dec-08 00:47N 47°16' W 122°23'0 0.0
2017-Dec-08 00:26N 47°16' W 122°23'0 0.0
2017-Dec-07 22:44N 47°16' W 122°23'0 0.0
2017-Dec-07 22:17N 47°16' W 122°23'0 0.0
2017-Dec-07 21:59N 47°16' W 122°23'0 0.0
2017-Dec-07 16:38N 47°16' W 122°23'0 1.6
2017-Dec-07 16:29N 47°16' W 122°24'2 3.2
2017-Dec-07 16:00N 47°17' W 122°25'1 0.9
2017-Dec-07 15:08N 47°16' W 122°25'0 0.0
2017-Dec-07 14:59N 47°16' W 122°25'0 0.0
2017-Dec-07 14:26N 47°16' W 122°25'0 0.0
2017-Dec-07 13:49N 47°16' W 122°25'0 0.0
2017-Dec-07 13:29N 47°16' W 122°25'0 0.0
2017-Dec-07 12:59N 47°16' W 122°25'0 0.0
2017-Dec-07 12:28N 47°16' W 122°25'0 0.0
2017-Dec-07 11:10N 47°16' W 122°25'0 0.0
2017-Dec-07 10:58N 47°16' W 122°25'0 0.0
2017-Dec-07 10:28N 47°16' W 122°25'0 0.0
2017-Dec-07 09:55N 47°16' W 122°25'0 0.0
2017-Dec-07 09:26N 47°16' W 122°25'0 0.0
2017-Dec-07 08:52N 47°16' W 122°25'0 0.0
2017-Dec-07 08:28N 47°16' W 122°25'0 0.0
2017-Dec-07 07:55N 47°16' W 122°25'0 0.0
2017-Dec-07 07:25N 47°16' W 122°25'0 0.0
2017-Dec-07 06:55N 47°16' W 122°25'0 0.0
2017-Dec-07 06:28N 47°16' W 122°25'0 0.0
2017-Dec-07 05:58N 47°16' W 122°25'0 0.1
2017-Dec-07 05:26N 47°16' W 122°25'0 1.1
2017-Dec-07 05:00N 47°16' W 122°25'1 2.5
2017-Dec-07 04:28N 47°16' W 122°24'0 0.8
2017-Dec-07 03:52N 47°16' W 122°23'0 0.0
2017-Dec-07 03:24N 47°16' W 122°23'0 0.0
2017-Dec-07 02:57N 47°16' W 122°23'0 0.0
2017-Dec-07 00:10N 47°16' W 122°23'0 0.0
2017-Dec-06 23:57N 47°16' W 122°23'0 0.0
2017-Dec-06 23:27N 47°16' W 122°23'0 0.2
2017-Dec-06 22:51N 47°16' W 122°23'0 0.1
2017-Dec-06 21:39N 47°16' W 122°23'0 1.0
2017-Dec-06 21:28N 47°16' W 122°23'2 3.4
2017-Dec-06 21:00N 47°17' W 122°25'  
2017-Dec-04 10:31N 47°47' W 122°24'0 0.1
2017-Dec-04 10:00N 47°47' W 122°24'0 0.0
2017-Dec-04 09:28N 47°47' W 122°24'0 0.1
2017-Dec-04 08:58N 47°47' W 122°24'0 0.1
2017-Dec-04 08:28N 47°47' W 122°24'0 0.0
2017-Dec-04 07:54N 47°47' W 122°24'0 0.0
2017-Dec-04 07:28N 47°47' W 122°24'0 0.0
2017-Dec-04 07:00N 47°47' W 122°24'0 0.0
2017-Dec-04 06:28N 47°47' W 122°24'0 0.0
2017-Dec-04 05:57N 47°47' W 122°24'0 0.0
2017-Dec-04 05:30N 47°47' W 122°24'0 0.0
2017-Dec-04 05:00N 47°47' W 122°24'0 0.0
2017-Dec-04 04:30N 47°47' W 122°24'0 0.1
2017-Dec-04 04:00N 47°47' W 122°24'0 0.1
2017-Dec-04 03:30N 47°47' W 122°24'0 0.1
2017-Dec-04 03:00N 47°47' W 122°24'0 0.1
2017-Dec-04 02:30N 47°47' W 122°24'0 0.0
2017-Dec-04 02:00N 47°47' W 122°24'0 0.0
2017-Dec-04 01:31N 47°47' W 122°24'0 0.0
2017-Dec-04 00:58N 47°47' W 122°24'0 0.0
2017-Dec-04 00:31N 47°47' W 122°24'0 0.0
2017-Dec-04 00:01N 47°47' W 122°24'0 0.0
2017-Dec-03 23:30N 47°47' W 122°24'0 0.0
2017-Dec-03 23:00N 47°47' W 122°24'0 0.0
2017-Dec-03 22:30N 47°47' W 122°24'0 0.0
2017-Dec-03 21:57N 47°47' W 122°24'0 0.0
2017-Dec-03 21:31N 47°47' W 122°24'0 0.0
2017-Dec-03 21:00N 47°47' W 122°24'0 0.0
2017-Dec-03 20:30N 47°47' W 122°24'0 0.0
2017-Dec-03 20:00N 47°47' W 122°24'0 0.0
2017-Dec-03 19:30N 47°47' W 122°24'0 0.0
2017-Dec-03 19:01N 47°47' W 122°24'0 0.0
2017-Dec-03 18:30N 47°47' W 122°24'0 0.0
2017-Dec-03 18:00N 47°47' W 122°24'0 0.0
2017-Dec-03 17:30N 47°47' W 122°24'0 0.0
2017-Dec-03 17:01N 47°47' W 122°24'0 0.0
2017-Dec-03 16:30N 47°47' W 122°24'0 0.0
2017-Dec-03 16:00N 47°47' W 122°24'0 0.0
2017-Dec-03 15:30N 47°47' W 122°24'0 0.8
2017-Dec-03 15:00N 47°47' W 122°24'1 1.7
2017-Dec-03 14:30N 47°47' W 122°25'2 4.6
2017-Dec-03 14:00N 47°49' W 122°27'3 5.1
2017-Dec-03 13:30N 47°52' W 122°29'2 4.8
2017-Dec-03 13:00N 47°54' W 122°30'3 5.6
2017-Dec-03 12:30N 47°56' W 122°32'3 5.6
2017-Dec-03 11:57N 47°58' W 122°36'24 6.0
2017-Dec-03 07:54N 48°21' W 122°46'2 5.0
2017-Dec-03 07:30N 48°23' W 122°46'3 6.6
2017-Dec-03 07:00N 48°26' W 122°45'3 6.9
2017-Dec-03 06:30N 48°30' W 122°44'3 6.0
2017-Dec-03 06:00N 48°31' W 122°40'3 6.4
2017-Dec-03 05:30N 48°31' W 122°35'1 2.1
2017-Dec-03 05:00N 48°30' W 122°34'0 0.2
2017-Dec-03 04:30N 48°30' W 122°34'0 0.0
2017-Dec-03 04:00N 48°30' W 122°34'0 0.0
2017-Dec-03 03:30N 48°30' W 122°34'0 0.0
2017-Dec-03 03:00N 48°30' W 122°34'0 0.0
2017-Dec-03 02:30N 48°30' W 122°34'0 0.0
2017-Dec-03 02:00N 48°30' W 122°34'0 0.0
2017-Dec-03 01:30N 48°30' W 122°34'0 0.0
2017-Dec-03 01:00N 48°30' W 122°34'0 0.0
2017-Dec-03 00:30N 48°30' W 122°34'0 0.0
2017-Dec-03 00:00N 48°30' W 122°34'0 0.0
2017-Dec-02 23:30N 48°30' W 122°34'0 0.0
2017-Dec-02 23:00N 48°30' W 122°34'0 0.0
2017-Dec-02 22:30N 48°30' W 122°34'0 0.0
2017-Dec-02 22:00N 48°30' W 122°34'0 0.0
2017-Dec-02 21:30N 48°30' W 122°34'0 0.0
2017-Dec-02 21:00N 48°30' W 122°34'0 0.0
2017-Dec-02 20:30N 48°30' W 122°34'0 0.0
2017-Dec-02 20:00N 48°30' W 122°34'0 0.0
2017-Dec-02 19:30N 48°30' W 122°34'0 0.0
2017-Dec-02 19:00N 48°30' W 122°34'0 0.0
2017-Dec-02 18:30N 48°30' W 122°34'0 0.0
2017-Dec-02 18:00N 48°30' W 122°34'0 0.0
2017-Dec-02 17:30N 48°30' W 122°34'1 1.1
2017-Dec-02 17:00N 48°31' W 122°35'2 3.6
2017-Dec-02 16:30N 48°31' W 122°37'3 6.2
2017-Dec-02 16:00N 48°31' W 122°42'3 5.9
2017-Dec-02 15:30N 48°28' W 122°44'4 7.3
2017-Dec-02 14:59N 48°25' W 122°44'4 8.4
2017-Dec-02 14:30N 48°21' W 122°45'6 8.1
2017-Dec-02 13:48N 48°15' W 122°47'3 8.7
2017-Dec-02 13:29N 48°13' W 122°48'13 8.0
2017-Dec-02 11:50N 48°01' W 122°37'3 7.8
2017-Dec-02 11:30N 47°59' W 122°35'4 8.4
2017-Dec-02 11:00N 47°57' W 122°30'4 7.1
2017-Dec-02 10:30N 47°53' W 122°28'4 7.5
2017-Dec-02 10:00N 47°50' W 122°27'4 8.5
2017-Dec-02 09:30N 47°46' W 122°25'4 8.5
2017-Dec-02 09:00N 47°41' W 122°27'4 8.1
2017-Dec-02 08:30N 47°37' W 122°27'4 8.7
2017-Dec-02 08:00N 47°33' W 122°26'4 8.4
2017-Dec-02 07:30N 47°29' W 122°24'4 8.4
2017-Dec-02 07:00N 47°25' W 122°22'4 7.0
2017-Dec-02 06:30N 47°22' W 122°23'4 8.2
2017-Dec-02 06:00N 47°19' W 122°28'2 4.2
2017-Dec-02 05:28N 47°17' W 122°25'0 0.0
2017-Dec-02 04:46N 47°17' W 122°25'0 0.0
2017-Dec-02 04:28N 47°17' W 122°25'0 0.0
2017-Dec-02 03:46N 47°17' W 122°25'0 0.0
2017-Dec-02 03:28N 47°17' W 122°25'0 0.0
2017-Dec-02 00:28N 47°17' W 122°25'0 0.1
2017-Dec-01 23:40N 47°17' W 122°25'0 0.0
2017-Dec-01 23:19N 47°17' W 122°25'0 0.1
2017-Dec-01 22:19N 47°17' W 122°25'1 1.6
2017-Dec-01 21:57N 47°17' W 122°26'0 0.5
2017-Dec-01 21:30N 47°17' W 122°26'0 0.7
2017-Dec-01 21:00N 47°17' W 122°26'1 1.9
2017-Dec-01 20:28N 47°17' W 122°28'0 0.5
2017-Dec-01 20:00N 47°18' W 122°28'2 4.6
2017-Dec-01 19:30N 47°20' W 122°27'3 6.3
2017-Dec-01 19:00N 47°22' W 122°24'3 5.9
2017-Dec-01 18:30N 47°25' W 122°23'4 7.3
2017-Dec-01 18:00N 47°28' W 122°25'4 7.3
2017-Dec-01 17:30N 47°32' W 122°27'4 7.5
2017-Dec-01 17:00N 47°35' W 122°28'4 7.3
2017-Dec-01 16:31N 47°39' W 122°28'3 6.8
2017-Dec-01 16:00N 47°42' W 122°28'3 6.5
2017-Dec-01 15:31N 47°45' W 122°27'3 4.9
2017-Dec-01 14:59N 47°47' W 122°24'0 0.5
2017-Dec-01 14:29N 47°47' W 122°24'0 0.0
2017-Dec-01 13:59N 47°47' W 122°24'0 0.0
2017-Dec-01 13:29N 47°47' W 122°24'0 0.0
2017-Dec-01 12:59N 47°47' W 122°24'0 0.0
2017-Dec-01 12:29N 47°47' W 122°24'0 0.0
2017-Dec-01 11:59N 47°47' W 122°24'0 0.0
2017-Dec-01 11:29N 47°47' W 122°24'0 0.0
2017-Dec-01 10:59N 47°47' W 122°24'0 0.0
2017-Dec-01 10:29N 47°47' W 122°24'0 0.0
2017-Dec-01 09:59N 47°47' W 122°24'0 0.0
2017-Dec-01 09:29N 47°47' W 122°24'0 0.0
2017-Dec-01 08:59N 47°47' W 122°24'0 0.0
2017-Dec-01 08:29N 47°47' W 122°24'0 0.1
2017-Dec-01 07:59N 47°47' W 122°24'3 5.8
2017-Dec-01 07:30N 47°44' W 122°25'4 7.4
2017-Dec-01 07:00N 47°41' W 122°27'3 6.7
2017-Dec-01 06:30N 47°37' W 122°25'4 7.3
2017-Dec-01 06:00N 47°35' W 122°21'0 0.4
2017-Dec-01 05:30N 47°35' W 122°21'0 0.0
2017-Dec-01 04:59N 47°35' W 122°21'0 0.0
2017-Dec-01 04:29N 47°35' W 122°21'  
Track history (hours):
 
Tides and Currents Weather Stations Pressure Air Temp Water Temp Dewpoint Dewpoint Depression Visibility Wind Speed Wind Dir Waves Ship Positions

Kestrel

Owner: Harley Marine Services, Inc, Seattle, WA. More information available from US FCC via Universal Licensing System and Coast Guard Vessel Documentation Center.

Last reported at 2017-Dec-11 04:00 UTC. Time now 2017-Dec-11 04:27 UTC.
Position N 47°47' W 122°24'.

Length 27 m; draft 3.5 m.

Type: Tow > 200 m length. MMSI: 367548420.

Date/timePositionNaut miles runAvg speedWind from/ knotsBaromVisibWave heightAir tempDewpointWater temp
2017-Dec-11 04:00N 47°47' W 122°24'0 0.0
2017-Dec-11 03:30N 47°47' W 122°24'0 0.0
2017-Dec-11 03:00N 47°47' W 122°24'0 0.0
2017-Dec-11 02:30N 47°47' W 122°24'0 0.0
2017-Dec-11 02:00N 47°47' W 122°24'0 0.0
2017-Dec-11 01:30N 47°47' W 122°24'0 0.0
2017-Dec-11 01:00N 47°47' W 122°24'0 0.0
2017-Dec-11 00:30N 47°47' W 122°24'0 0.0
2017-Dec-11 00:00N 47°47' W 122°24'3 5.1
2017-Dec-10 23:30N 47°45' W 122°26'4 7.9
2017-Dec-10 23:00N 47°41' W 122°27'4 7.3
2017-Dec-10 22:30N 47°37' W 122°25'4 7.3
2017-Dec-10 22:00N 47°35' W 122°21'0 0.8
2017-Dec-10 21:27N 47°35' W 122°21'0 0.1
2017-Dec-10 21:00N 47°35' W 122°21'0 0.0
2017-Dec-10 20:30N 47°35' W 122°21'0 0.0
2017-Dec-10 20:00N 47°35' W 122°21'0 0.0
2017-Dec-10 19:30N 47°35' W 122°21'0 0.0
2017-Dec-10 19:00N 47°35' W 122°21'0 0.0
2017-Dec-10 18:27N 47°35' W 122°21'0 0.0
2017-Dec-10 18:00N 47°35' W 122°21'0 0.0
2017-Dec-10 17:30N 47°35' W 122°21'0 0.0
2017-Dec-10 17:00N 47°35' W 122°21'0 0.0
2017-Dec-10 16:30N 47°35' W 122°21'0 0.0
2017-Dec-10 16:00N 47°35' W 122°21'0 0.0
2017-Dec-10 15:30N 47°35' W 122°21'0 0.0
2017-Dec-10 15:00N 47°35' W 122°21'0 0.0
2017-Dec-10 14:30N 47°35' W 122°21'0 0.0
2017-Dec-10 14:00N 47°35' W 122°21'0 0.0
2017-Dec-10 13:30N 47°35' W 122°21'0 0.0
2017-Dec-10 13:00N 47°35' W 122°21'0 0.7
2017-Dec-10 12:30N 47°34' W 122°21'0 0.0
2017-Dec-10 11:59N 47°34' W 122°21'0 0.0
2017-Dec-10 11:29N 47°34' W 122°21'0 0.0
2017-Dec-10 10:59N 47°34' W 122°21'0 0.0
2017-Dec-10 10:29N 47°34' W 122°21'0 0.0
2017-Dec-10 09:59N 47°34' W 122°21'0 0.0
2017-Dec-10 09:29N 47°34' W 122°21'0 0.0
2017-Dec-10 08:59N 47°34' W 122°21'0 0.0
2017-Dec-10 08:29N 47°34' W 122°21'0 0.0
2017-Dec-10 07:59N 47°34' W 122°21'0 0.0
2017-Dec-10 07:29N 47°34' W 122°21'0 0.0
2017-Dec-10 06:59N 47°34' W 122°21'0 0.0
2017-Dec-10 06:29N 47°34' W 122°21'0 0.0
2017-Dec-10 05:59N 47°34' W 122°21'0 0.0
2017-Dec-10 05:29N 47°34' W 122°21'0 0.0
2017-Dec-10 04:59N 47°34' W 122°21'0 0.0
2017-Dec-10 04:26N 47°34' W 122°21'0 0.0
2017-Dec-10 03:59N 47°34' W 122°21'0 0.0
2017-Dec-10 03:29N 47°34' W 122°21'0 0.0
2017-Dec-10 02:56N 47°34' W 122°21'0 0.1
2017-Dec-10 02:26N 47°34' W 122°21'0 0.0
2017-Dec-10 01:59N 47°34' W 122°21'0 0.0
2017-Dec-10 00:29N 47°34' W 122°21'0 0.0
2017-Dec-09 23:59N 47°34' W 122°21'0 0.0
2017-Dec-09 23:14N 47°34' W 122°21'0 0.0
2017-Dec-09 22:53N 47°34' W 122°21'0 0.0
2017-Dec-09 22:29N 47°34' W 122°21'0 0.0
2017-Dec-09 22:01N 47°34' W 122°21'0 0.1
2017-Dec-09 21:30N 47°34' W 122°21'1 1.9
2017-Dec-09 20:58N 47°35' W 122°21'0 0.0
2017-Dec-09 20:29N 47°35' W 122°21'0 0.7
2017-Dec-09 20:00N 47°36' W 122°21'2 4.2
2017-Dec-09 19:30N 47°37' W 122°24'3 6.6
2017-Dec-09 19:00N 47°39' W 122°27'3 6.8
2017-Dec-09 18:30N 47°43' W 122°26'4 7.1
2017-Dec-09 18:01N 47°46' W 122°25'1 1.6
2017-Dec-09 17:29N 47°47' W 122°24'0 0.0
2017-Dec-09 16:59N 47°47' W 122°24'0 0.0
2017-Dec-09 16:29N 47°47' W 122°24'0 0.0
2017-Dec-09 15:59N 47°47' W 122°24'0 0.1
2017-Dec-09 15:29N 47°47' W 122°24'0 0.0
2017-Dec-09 14:59N 47°47' W 122°24'0 0.1
2017-Dec-09 14:29N 47°47' W 122°24'0 0.0
2017-Dec-09 13:59N 47°47' W 122°24'0 0.0
2017-Dec-09 13:29N 47°47' W 122°24'0 0.0
2017-Dec-09 12:59N 47°47' W 122°24'0 0.1
2017-Dec-09 12:29N 47°47' W 122°24'0 0.1
2017-Dec-09 11:59N 47°47' W 122°24'0 0.1
2017-Dec-09 11:29N 47°47' W 122°24'0 0.0
2017-Dec-09 10:59N 47°47' W 122°24'0 0.1
2017-Dec-09 10:29N 47°47' W 122°24'0 0.0
2017-Dec-09 09:59N 47°47' W 122°24'0 0.1
2017-Dec-09 09:29N 47°47' W 122°24'0 0.1
2017-Dec-09 08:56N 47°47' W 122°24'0 0.1
2017-Dec-09 08:29N 47°47' W 122°24'0 0.1
2017-Dec-09 07:59N 47°47' W 122°24'0 0.1
2017-Dec-09 07:29N 47°47' W 122°24'0 0.1
2017-Dec-09 06:59N 47°47' W 122°24'0 0.0
2017-Dec-09 06:29N 47°47' W 122°24'0 0.1
2017-Dec-09 05:59N 47°47' W 122°24'0 0.1
2017-Dec-09 05:29N 47°47' W 122°24'0 0.0
2017-Dec-09 04:59N 47°47' W 122°24'0 0.1
2017-Dec-09 04:29N 47°47' W 122°24'0 0.1
2017-Dec-09 03:59N 47°47' W 122°24'0 0.0
2017-Dec-09 03:29N 47°47' W 122°24'0 0.0
2017-Dec-09 02:59N 47°47' W 122°24'0 0.1
2017-Dec-09 02:29N 47°47' W 122°24'0 0.1
2017-Dec-09 01:59N 47°47' W 122°24'0 0.0
2017-Dec-09 01:29N 47°47' W 122°24'0 0.1
2017-Dec-09 00:59N 47°47' W 122°24'0 0.0
2017-Dec-09 00:29N 47°47' W 122°24'0 0.1
2017-Dec-08 23:59N 47°47' W 122°24'0 0.0
2017-Dec-08 23:29N 47°47' W 122°24'0 0.0
2017-Dec-08 22:59N 47°47' W 122°24'0 0.1
2017-Dec-08 22:26N 47°47' W 122°24'0 0.0
2017-Dec-08 21:59N 47°47' W 122°24'0 0.0
2017-Dec-08 21:29N 47°47' W 122°24'0 0.0
2017-Dec-08 20:59N 47°47' W 122°24'0 0.1
2017-Dec-08 20:29N 47°47' W 122°24'0 0.1
2017-Dec-08 19:59N 47°47' W 122°24'0 0.0
2017-Dec-08 19:29N 47°47' W 122°24'0 0.1
2017-Dec-08 18:59N 47°47' W 122°24'0 0.0
2017-Dec-08 18:29N 47°47' W 122°24'0 0.0
2017-Dec-08 17:59N 47°47' W 122°24'0 0.1
2017-Dec-08 17:29N 47°47' W 122°24'0 0.0
2017-Dec-08 16:53N 47°47' W 122°24'0 0.1
2017-Dec-08 16:29N 47°47' W 122°24'0 0.0
2017-Dec-08 15:59N 47°47' W 122°24'0 0.0
2017-Dec-08 15:29N 47°47' W 122°24'0 0.1
2017-Dec-08 14:59N 47°47' W 122°24'0 0.0
2017-Dec-08 14:29N 47°47' W 122°24'0 0.0
2017-Dec-08 13:59N 47°47' W 122°24'0 0.1
2017-Dec-08 13:29N 47°47' W 122°24'0 0.1
2017-Dec-08 12:59N 47°47' W 122°24'0 0.1
2017-Dec-08 12:29N 47°47' W 122°24'0 0.0
2017-Dec-08 11:59N 47°47' W 122°24'0 0.1
2017-Dec-08 11:29N 47°47' W 122°24'0 0.1
2017-Dec-08 10:59N 47°47' W 122°24'0 0.0
2017-Dec-08 10:29N 47°47' W 122°24'0 0.0
2017-Dec-08 09:59N 47°47' W 122°24'0 0.1
2017-Dec-08 09:29N 47°47' W 122°24'0 0.0
2017-Dec-08 08:59N 47°47' W 122°24'0 0.1
2017-Dec-08 08:29N 47°47' W 122°24'0 0.1
2017-Dec-08 07:59N 47°47' W 122°24'0 0.1
2017-Dec-08 07:29N 47°47' W 122°24'0 0.0
2017-Dec-08 06:56N 47°47' W 122°24'1 2.4
2017-Dec-08 06:30N 47°46' W 122°25'1 2.8
2017-Dec-08 06:00N 47°45' W 122°25'3 5.8
2017-Dec-08 05:30N 47°42' W 122°26'4 7.6
2017-Dec-08 05:00N 47°38' W 122°27'4 7.7
2017-Dec-08 04:30N 47°34' W 122°26'4 7.7
2017-Dec-08 04:00N 47°31' W 122°25'4 7.5
2017-Dec-08 03:30N 47°27' W 122°23'4 7.8
2017-Dec-08 03:00N 47°23' W 122°21'4 7.2
2017-Dec-08 02:30N 47°21' W 122°24'3 7.0
2017-Dec-08 02:00N 47°18' W 122°27'3 4.9
2017-Dec-08 01:28N 47°16' W 122°24'1 1.3
2017-Dec-08 00:47N 47°16' W 122°23'0 0.0
2017-Dec-08 00:26N 47°16' W 122°23'0 0.0
2017-Dec-07 22:44N 47°16' W 122°23'0 0.0
2017-Dec-07 22:17N 47°16' W 122°23'0 0.0
2017-Dec-07 21:59N 47°16' W 122°23'0 0.0
2017-Dec-07 16:38N 47°16' W 122°23'0 1.6
2017-Dec-07 16:29N 47°16' W 122°24'2 3.2
2017-Dec-07 16:00N 47°17' W 122°25'1 0.9
2017-Dec-07 15:08N 47°16' W 122°25'0 0.0
2017-Dec-07 14:59N 47°16' W 122°25'0 0.0
2017-Dec-07 14:26N 47°16' W 122°25'0 0.0
2017-Dec-07 13:49N 47°16' W 122°25'0 0.0
2017-Dec-07 13:29N 47°16' W 122°25'0 0.0
2017-Dec-07 12:59N 47°16' W 122°25'0 0.0
2017-Dec-07 12:28N 47°16' W 122°25'0 0.0
2017-Dec-07 11:10N 47°16' W 122°25'0 0.0
2017-Dec-07 10:58N 47°16' W 122°25'0 0.0
2017-Dec-07 10:28N 47°16' W 122°25'0 0.0
2017-Dec-07 09:55N 47°16' W 122°25'0 0.0
2017-Dec-07 09:26N 47°16' W 122°25'0 0.0
2017-Dec-07 08:52N 47°16' W 122°25'0 0.0
2017-Dec-07 08:28N 47°16' W 122°25'0 0.0
2017-Dec-07 07:55N 47°16' W 122°25'0 0.0
2017-Dec-07 07:25N 47°16' W 122°25'0 0.0
2017-Dec-07 06:55N 47°16' W 122°25'0 0.0
2017-Dec-07 06:28N 47°16' W 122°25'0 0.0
2017-Dec-07 05:58N 47°16' W 122°25'0 0.1
2017-Dec-07 05:26N 47°16' W 122°25'0 1.1
2017-Dec-07 05:00N 47°16' W 122°25'1 2.5
2017-Dec-07 04:28N 47°16' W 122°24'0 0.8
2017-Dec-07 03:52N 47°16' W 122°23'0 0.0
2017-Dec-07 03:24N 47°16' W 122°23'0 0.0
2017-Dec-07 02:57N 47°16' W 122°23'0 0.0
2017-Dec-07 00:10N 47°16' W 122°23'0 0.0
2017-Dec-06 23:57N 47°16' W 122°23'0 0.0
2017-Dec-06 23:27N 47°16' W 122°23'0 0.2
2017-Dec-06 22:51N 47°16' W 122°23'0 0.1
2017-Dec-06 21:39N 47°16' W 122°23'0 1.0
2017-Dec-06 21:28N 47°16' W 122°23'2 3.4
2017-Dec-06 21:00N 47°17' W 122°25'  
2017-Dec-04 10:31N 47°47' W 122°24'0 0.1
2017-Dec-04 10:00N 47°47' W 122°24'0 0.0
2017-Dec-04 09:28N 47°47' W 122°24'0 0.1
2017-Dec-04 08:58N 47°47' W 122°24'0 0.1
2017-Dec-04 08:28N 47°47' W 122°24'0 0.0
2017-Dec-04 07:54N 47°47' W 122°24'0 0.0
2017-Dec-04 07:28N 47°47' W 122°24'0 0.0
2017-Dec-04 07:00N 47°47' W 122°24'0 0.0
2017-Dec-04 06:28N 47°47' W 122°24'0 0.0
2017-Dec-04 05:57N 47°47' W 122°24'0 0.0
2017-Dec-04 05:30N 47°47' W 122°24'0 0.0
2017-Dec-04 05:00N 47°47' W 122°24'0 0.0
2017-Dec-04 04:30N 47°47' W 122°24'0 0.1
2017-Dec-04 04:00N 47°47' W 122°24'0 0.1
2017-Dec-04 03:30N 47°47' W 122°24'0 0.1
2017-Dec-04 03:00N 47°47' W 122°24'0 0.1
2017-Dec-04 02:30N 47°47' W 122°24'0 0.0
2017-Dec-04 02:00N 47°47' W 122°24'0 0.0
2017-Dec-04 01:31N 47°47' W 122°24'0 0.0
2017-Dec-04 00:58N 47°47' W 122°24'0 0.0
2017-Dec-04 00:31N 47°47' W 122°24'0 0.0
2017-Dec-04 00:01N 47°47' W 122°24'0 0.0
2017-Dec-03 23:30N 47°47' W 122°24'0 0.0
2017-Dec-03 23:00N 47°47' W 122°24'0 0.0
2017-Dec-03 22:30N 47°47' W 122°24'0 0.0
2017-Dec-03 21:57N 47°47' W 122°24'0 0.0
2017-Dec-03 21:31N 47°47' W 122°24'0 0.0
2017-Dec-03 21:00N 47°47' W 122°24'0 0.0
2017-Dec-03 20:30N 47°47' W 122°24'0 0.0
2017-Dec-03 20:00N 47°47' W 122°24'0 0.0
2017-Dec-03 19:30N 47°47' W 122°24'0 0.0
2017-Dec-03 19:01N 47°47' W 122°24'0 0.0
2017-Dec-03 18:30N 47°47' W 122°24'0 0.0
2017-Dec-03 18:00N 47°47' W 122°24'0 0.0
2017-Dec-03 17:30N 47°47' W 122°24'0 0.0
2017-Dec-03 17:01N 47°47' W 122°24'0 0.0
2017-Dec-03 16:30N 47°47' W 122°24'0 0.0
2017-Dec-03 16:00N 47°47' W 122°24'0 0.0
2017-Dec-03 15:30N 47°47' W 122°24'0 0.8
2017-Dec-03 15:00N 47°47' W 122°24'1 1.7
2017-Dec-03 14:30N 47°47' W 122°25'2 4.6
2017-Dec-03 14:00N 47°49' W 122°27'3 5.1
2017-Dec-03 13:30N 47°52' W 122°29'2 4.8
2017-Dec-03 13:00N 47°54' W 122°30'3 5.6
2017-Dec-03 12:30N 47°56' W 122°32'3 5.6
2017-Dec-03 11:57N 47°58' W 122°36'24 6.0
2017-Dec-03 07:54N 48°21' W 122°46'2 5.0
2017-Dec-03 07:30N 48°23' W 122°46'3 6.6
2017-Dec-03 07:00N 48°26' W 122°45'3 6.9
2017-Dec-03 06:30N 48°30' W 122°44'3 6.0
2017-Dec-03 06:00N 48°31' W 122°40'3 6.4
2017-Dec-03 05:30N 48°31' W 122°35'1 2.1
2017-Dec-03 05:00N 48°30' W 122°34'0 0.2
2017-Dec-03 04:30N 48°30' W 122°34'0 0.0
2017-Dec-03 04:00N 48°30' W 122°34'0 0.0
2017-Dec-03 03:30N 48°30' W 122°34'0 0.0
2017-Dec-03 03:00N 48°30' W 122°34'0 0.0
2017-Dec-03 02:30N 48°30' W 122°34'0 0.0
2017-Dec-03 02:00N 48°30' W 122°34'0 0.0
2017-Dec-03 01:30N 48°30' W 122°34'0 0.0
2017-Dec-03 01:00N 48°30' W 122°34'0 0.0
2017-Dec-03 00:30N 48°30' W 122°34'0 0.0
2017-Dec-03 00:00N 48°30' W 122°34'0 0.0
2017-Dec-02 23:30N 48°30' W 122°34'0 0.0
2017-Dec-02 23:00N 48°30' W 122°34'0 0.0
2017-Dec-02 22:30N 48°30' W 122°34'0 0.0
2017-Dec-02 22:00N 48°30' W 122°34'0 0.0
2017-Dec-02 21:30N 48°30' W 122°34'0 0.0
2017-Dec-02 21:00N 48°30' W 122°34'0 0.0
2017-Dec-02 20:30N 48°30' W 122°34'0 0.0
2017-Dec-02 20:00N 48°30' W 122°34'0 0.0
2017-Dec-02 19:30N 48°30' W 122°34'0 0.0
2017-Dec-02 19:00N 48°30' W 122°34'0 0.0
2017-Dec-02 18:30N 48°30' W 122°34'0 0.0
2017-Dec-02 18:00N 48°30' W 122°34'0 0.0
2017-Dec-02 17:30N 48°30' W 122°34'1 1.1
2017-Dec-02 17:00N 48°31' W 122°35'2 3.6
2017-Dec-02 16:30N 48°31' W 122°37'3 6.2
2017-Dec-02 16:00N 48°31' W 122°42'3 5.9
2017-Dec-02 15:30N 48°28' W 122°44'4 7.3
2017-Dec-02 14:59N 48°25' W 122°44'4 8.4
2017-Dec-02 14:30N 48°21' W 122°45'6 8.1
2017-Dec-02 13:48N 48°15' W 122°47'3 8.7
2017-Dec-02 13:29N 48°13' W 122°48'13 8.0
2017-Dec-02 11:50N 48°01' W 122°37'3 7.8
2017-Dec-02 11:30N 47°59' W 122°35'4 8.4
2017-Dec-02 11:00N 47°57' W 122°30'4 7.1
2017-Dec-02 10:30N 47°53' W 122°28'4 7.5
2017-Dec-02 10:00N 47°50' W 122°27'4 8.5
2017-Dec-02 09:30N 47°46' W 122°25'4 8.5
2017-Dec-02 09:00N 47°41' W 122°27'4 8.1
2017-Dec-02 08:30N 47°37' W 122°27'4 8.7
2017-Dec-02 08:00N 47°33' W 122°26'4 8.4
2017-Dec-02 07:30N 47°29' W 122°24'4 8.4
2017-Dec-02 07:00N 47°25' W 122°22'4 7.0
2017-Dec-02 06:30N 47°22' W 122°23'4 8.2
2017-Dec-02 06:00N 47°19' W 122°28'2 4.2
2017-Dec-02 05:28N 47°17' W 122°25'0 0.0
2017-Dec-02 04:46N 47°17' W 122°25'0 0.0
2017-Dec-02 04:28N 47°17' W 122°25'0 0.0
2017-Dec-02 03:46N 47°17' W 122°25'0 0.0
2017-Dec-02 03:28N 47°17' W 122°25'0 0.0
2017-Dec-02 00:28N 47°17' W 122°25'0 0.1
2017-Dec-01 23:40N 47°17' W 122°25'0 0.0
2017-Dec-01 23:19N 47°17' W 122°25'0 0.1
2017-Dec-01 22:19N 47°17' W 122°25'1 1.6
2017-Dec-01 21:57N 47°17' W 122°26'0 0.5
2017-Dec-01 21:30N 47°17' W 122°26'0 0.7
2017-Dec-01 21:00N 47°17' W 122°26'1 1.9
2017-Dec-01 20:28N 47°17' W 122°28'0 0.5
2017-Dec-01 20:00N 47°18' W 122°28'2 4.6
2017-Dec-01 19:30N 47°20' W 122°27'3 6.3
2017-Dec-01 19:00N 47°22' W 122°24'3 5.9
2017-Dec-01 18:30N 47°25' W 122°23'4 7.3
2017-Dec-01 18:00N 47°28' W 122°25'4 7.3
2017-Dec-01 17:30N 47°32' W 122°27'4 7.5
2017-Dec-01 17:00N 47°35' W 122°28'4 7.3
2017-Dec-01 16:31N 47°39' W 122°28'3 6.8
2017-Dec-01 16:00N 47°42' W 122°28'3 6.5
2017-Dec-01 15:31N 47°45' W 122°27'3 4.9
2017-Dec-01 14:59N 47°47' W 122°24'0 0.5
2017-Dec-01 14:29N 47°47' W 122°24'0 0.0
2017-Dec-01 13:59N 47°47' W 122°24'0 0.0
2017-Dec-01 13:29N 47°47' W 122°24'0 0.0
2017-Dec-01 12:59N 47°47' W 122°24'0 0.0
2017-Dec-01 12:29N 47°47' W 122°24'0 0.0
2017-Dec-01 11:59N 47°47' W 122°24'0 0.0
2017-Dec-01 11:29N 47°47' W 122°24'0 0.0
2017-Dec-01 10:59N 47°47' W 122°24'0 0.0
2017-Dec-01 10:29N 47°47' W 122°24'0 0.0
2017-Dec-01 09:59N 47°47' W 122°24'0 0.0
2017-Dec-01 09:29N 47°47' W 122°24'0 0.0
2017-Dec-01 08:59N 47°47' W 122°24'0 0.0
2017-Dec-01 08:29N 47°47' W 122°24'0 0.1
2017-Dec-01 07:59N 47°47' W 122°24'3 5.8
2017-Dec-01 07:30N 47°44' W 122°25'4 7.4
2017-Dec-01 07:00N 47°41' W 122°27'3 6.7
2017-Dec-01 06:30N 47°37' W 122°25'4 7.3
2017-Dec-01 06:00N 47°35' W 122°21'0 0.4
2017-Dec-01 05:30N 47°35' W 122°21'0 0.0
2017-Dec-01 04:59N 47°35' W 122°21'0 0.0
2017-Dec-01 04:29N 47°35' W 122°21'  

Dump ship's entire track history